TimeEDT,TemperatureF,Dew PointF,Humidity,Sea Level PressureIn,VisibilityMPH,Wind Direction,Wind SpeedMPH,Gust SpeedMPH,PrecipitationIn,Events,Conditions,WindDirDegrees,DateUTC
12:51 AM,80.1,73.9,81,30.07,10.0,WSW,12.7,19.6,N/A,,Clear,240,2013-07-20 04:51:00
1:51 AM,79.0,73.9,84,30.06,10.0,WSW,12.7,-,N/A,,Clear,240,2013-07-20 05:51:00
2:51 AM,80.1,73.9,81,30.05,10.0,WSW,13.8,20.7,N/A,,Clear,240,2013-07-20 06:51:00
3:51 AM,79.0,73.0,82,30.05,10.0,WSW,13.8,20.7,N/A,,Clear,250,2013-07-20 07:51:00
4:51 AM,79.0,73.9,84,30.05,10.0,WSW,10.4,20.7,N/A,,Partly Cloudy,240,2013-07-20 08:51:00
5:51 AM,79.0,73.0,82,30.05,9.0,WSW,10.4,-,N/A,,Scattered Clouds,240,2013-07-20 09:51:00
6:51 AM,79.0,73.0,82,30.05,8.0,WSW,15.0,24.2,N/A,,Mostly Cloudy,250,2013-07-20 10:51:00
7:51 AM,80.1,73.9,81,30.07,7.0,WSW,12.7,21.9,N/A,,Clear,250,2013-07-20 11:51:00
8:51 AM,81.0,73.9,79,30.07,7.0,WSW,8.1,-,N/A,,Clear,240,2013-07-20 12:51:00
9:51 AM,82.9,73.9,74,30.07,9.0,WSW,9.2,-,N/A,,Partly Cloudy,240,2013-07-20 13:51:00
10:51 AM,84.0,73.0,69,30.06,10.0,WSW,12.7,-,N/A,,Clear,240,2013-07-20 14:51:00
11:51 AM,84.9,73.9,69,30.06,10.0,SW,12.7,-,N/A,,Clear,230,2013-07-20 15:51:00
12:51 PM,84.9,73.9,69,30.05,10.0,SW,13.8,-,N/A,,Clear,230,2013-07-20 16:51:00
1:51 PM,86.0,73.0,65,30.03,10.0,SW,12.7,23.0,N/A,,Clear,230,2013-07-20 17:51:00
2:51 PM,86.0,73.9,67,30.02,10.0,SW,13.8,23.0,N/A,,Clear,220,2013-07-20 18:51:00
3:51 PM,86.0,73.0,65,30.00,10.0,SW,13.8,21.9,N/A,,Clear,220,2013-07-20 19:51:00
4:51 PM,84.9,75.0,72,30.00,8.0,SW,13.8,-,N/A,,Clear,220,2013-07-20 20:51:00
5:51 PM,84.9,75.0,72,29.99,9.0,SW,13.8,21.9,N/A,,Clear,230,2013-07-20 21:51:00
6:51 PM,82.9,75.0,77,29.99,8.0,SW,12.7,19.6,N/A,,Clear,230,2013-07-20 22:51:00
7:51 PM,81.0,73.0,77,30.01,9.0,SW,15.0,21.9,N/A,,Clear,230,2013-07-20 23:51:00
8:51 PM,80.1,73.0,79,30.01,10.0,WSW,13.8,-,N/A,,Clear,240,2013-07-21 00:51:00
9:51 PM,80.1,73.9,81,30.03,10.0,SW,12.7,-,N/A,,Clear,230,2013-07-21 01:51:00
10:51 PM,79.0,73.0,82,30.04,9.0,WSW,13.8,20.7,N/A,,Clear,240,2013-07-21 02:51:00
11:51 PM,79.0,73.0,82,30.03,9.0,WSW,11.5,-,N/A,,Clear,240,2013-07-21 03:51:00